sensor_id;sensor_type;location;lat;lon;timestamp;temperature;humidity
13229;DHT22;6680;53.220;10.402;2022-09-03T00:00:24;15.10;99.90
13229;DHT22;6680;53.220;10.402;2022-09-03T00:02:58;15.10;99.90
13229;DHT22;6680;53.220;10.402;2022-09-03T00:05:31;15.00;99.90
13229;DHT22;6680;53.220;10.402;2022-09-03T00:08:05;14.90;99.90
13229;DHT22;6680;53.220;10.402;2022-09-03T00:10:39;14.90;99.90
13229;DHT22;6680;53.220;10.402;2022-09-03T00:13:12;14.80;99.90
13229;DHT22;6680;53.220;10.402;2022-09-03T00:15:41;14.80;99.90
13229;DHT22;6680;53.220;10.402;2022-09-03T00:18:11;14.70;99.90
13229;DHT22;6680;53.220;10.402;2022-09-03T00:20:42;14.60;99.90
13229;DHT22;6680;53.220;10.402;2022-09-03T00:23:15;14.50;99.90
13229;DHT22;6680;53.220;10.402;2022-09-03T00:25:47;14.50;99.90
13229;DHT22;6680;53.220;10.402;2022-09-03T00:28:18;14.50;99.90
13229;DHT22;6680;53.220;10.402;2022-09-03T00:30:52;14.40;99.90
13229;DHT22;6680;53.220;10.402;2022-09-03T00:33:24;14.40;99.90
13229;DHT22;6680;53.220;10.402;2022-09-03T00:36:01;14.20;99.90
13229;DHT22;6680;53.220;10.402;2022-09-03T00:38:28;14.30;99.90
13229;DHT22;6680;53.220;10.402;2022-09-03T00:41:03;14.30;99.90
13229;DHT22;6680;53.220;10.402;2022-09-03T00:43:41;14.30;99.90
13229;DHT22;6680;53.220;10.402;2022-09-03T00:46:18;14.40;99.90
13229;DHT22;6680;53.220;10.402;2022-09-03T00:48:56;14.40;99.90
13229;DHT22;6680;53.220;10.402;2022-09-03T00:51:28;14.40;99.90
13229;DHT22;6680;53.220;10.402;2022-09-03T00:54:05;14.50;99.90
13229;DHT22;6680;53.220;10.402;2022-09-03T00:56:42;14.60;99.90
13229;DHT22;6680;53.220;10.402;2022-09-03T00:59:22;14.60;99.90
13229;DHT22;6680;53.220;10.402;2022-09-03T01:02:02;14.60;99.90
13229;DHT22;6680;53.220;10.402;2022-09-03T01:04:40;14.70;99.90
13229;DHT22;6680;53.220;10.402;2022-09-03T01:07:16;14.60;99.90
13229;DHT22;6680;53.220;10.402;2022-09-03T01:09:50;14.60;99.90
13229;DHT22;6680;53.220;10.402;2022-09-03T01:12:27;14.60;99.90
13229;DHT22;6680;53.220;10.402;2022-09-03T01:15:02;14.60;99.90
13229;DHT22;6680;53.220;10.402;2022-09-03T01:17:44;14.50;99.90
13229;DHT22;6680;53.220;10.402;2022-09-03T01:20:22;14.50;99.90
13229;DHT22;6680;53.220;10.402;2022-09-03T01:23:10;14.40;99.90
13229;DHT22;6680;53.220;10.402;2022-09-03T01:25:49;14.40;99.90
13229;DHT22;6680;53.220;10.402;2022-09-03T01:28:26;14.40;99.90
13229;DHT22;6680;53.220;10.402;2022-09-03T01:31:01;14.30;99.90
13229;DHT22;6680;53.220;10.402;2022-09-03T01:33:35;14.20;99.90
13229;DHT22;6680;53.220;10.402;2022-09-03T01:36:10;14.20;99.90
13229;DHT22;6680;53.220;10.402;2022-09-03T01:38:44;14.10;99.90
13229;DHT22;6680;53.220;10.402;2022-09-03T01:41:21;14.00;99.90
13229;DHT22;6680;53.220;10.402;2022-09-03T01:44:15;13.90;99.90
13229;DHT22;6680;53.220;10.402;2022-09-03T01:46:48;13.80;99.90
13229;DHT22;6680;53.220;10.402;2022-09-03T01:49:19;13.80;99.90
13229;DHT22;6680;53.220;10.402;2022-09-03T01:51:55;13.80;99.90
13229;DHT22;6680;53.220;10.402;2022-09-03T01:54:50;13.70;99.90
13229;DHT22;6680;53.220;10.402;2022-09-03T02:00:12;13.60;99.90
13229;DHT22;6680;53.220;10.402;2022-09-03T02:02:40;13.50;99.90
13229;DHT22;6680;53.220;10.402;2022-09-03T02:05:10;13.50;99.90
13229;DHT22;6680;53.220;10.402;2022-09-03T02:07:41;13.40;99.90
13229;DHT22;6680;53.220;10.402;2022-09-03T02:10:12;13.40;99.90
13229;DHT22;6680;53.220;10.402;2022-09-03T02:12:42;13.40;99.90
13229;DHT22;6680;53.220;10.402;2022-09-03T02:15:14;13.40;99.90
13229;DHT22;6680;53.220;10.402;2022-09-03T02:17:43;13.30;99.90
13229;DHT22;6680;53.220;10.402;2022-09-03T02:20:15;13.30;99.90
13229;DHT22;6680;53.220;10.402;2022-09-03T02:22:44;13.30;99.90
13229;DHT22;6680;53.220;10.402;2022-09-03T02:25:11;13.20;99.90
13229;DHT22;6680;53.220;10.402;2022-09-03T02:27:38;13.20;99.90
13229;DHT22;6680;53.220;10.402;2022-09-03T02:30:07;13.10;99.90
13229;DHT22;6680;53.220;10.402;2022-09-03T02:32:36;13.00;99.90
13229;DHT22;6680;53.220;10.402;2022-09-03T02:35:03;13.00;99.90
13229;DHT22;6680;53.220;10.402;2022-09-03T02:37:29;12.90;99.90
13229;DHT22;6680;53.220;10.402;2022-09-03T02:39:56;12.90;99.90
13229;DHT22;6680;53.220;10.402;2022-09-03T02:42:23;12.90;99.90
13229;DHT22;6680;53.220;10.402;2022-09-03T02:44:53;12.80;99.90
13229;DHT22;6680;53.220;10.402;2022-09-03T02:47:22;12.80;99.90
13229;DHT22;6680;53.220;10.402;2022-09-03T02:49:50;12.80;99.90
13229;DHT22;6680;53.220;10.402;2022-09-03T02:52:17;12.80;99.90
13229;DHT22;6680;53.220;10.402;2022-09-03T02:54:44;12.90;99.90
13229;DHT22;6680;53.220;10.402;2022-09-03T02:57:12;12.70;99.90
13229;DHT22;6680;53.220;10.402;2022-09-03T02:59:40;12.70;99.90
13229;DHT22;6680;53.220;10.402;2022-09-03T03:02:09;12.70;99.90
13229;DHT22;6680;53.220;10.402;2022-09-03T03:04:36;12.80;99.90
13229;DHT22;6680;53.220;10.402;2022-09-03T03:07:04;12.70;99.90
13229;DHT22;6680;53.220;10.402;2022-09-03T03:09:31;12.70;99.90
13229;DHT22;6680;53.220;10.402;2022-09-03T03:11:58;12.70;99.90
13229;DHT22;6680;53.220;10.402;2022-09-03T03:14:24;12.80;99.90
13229;DHT22;6680;53.220;10.402;2022-09-03T03:16:51;12.80;99.90
13229;DHT22;6680;53.220;10.402;2022-09-03T03:19:18;12.80;99.90
13229;DHT22;6680;53.220;10.402;2022-09-03T03:21:44;12.80;99.90
13229;DHT22;6680;53.220;10.402;2022-09-03T03:24:12;12.70;99.90
13229;DHT22;6680;53.220;10.402;2022-09-03T03:26:39;12.70;99.90
13229;DHT22;6680;53.220;10.402;2022-09-03T03:29:06;12.70;99.90
13229;DHT22;6680;53.220;10.402;2022-09-03T03:31:33;12.70;99.90
13229;DHT22;6680;53.220;10.402;2022-09-03T03:34:01;12.70;99.90
13229;DHT22;6680;53.220;10.402;2022-09-03T03:36:30;12.60;99.90
13229;DHT22;6680;53.220;10.402;2022-09-03T03:38:58;12.60;99.90
13229;DHT22;6680;53.220;10.402;2022-09-03T03:41:27;12.60;99.90
13229;DHT22;6680;53.220;10.402;2022-09-03T03:43:57;12.60;99.90
13229;DHT22;6680;53.220;10.402;2022-09-03T03:46:28;12.60;99.90
13229;DHT22;6680;53.220;10.402;2022-09-03T03:48:55;12.60;99.90
13229;DHT22;6680;53.220;10.402;2022-09-03T03:51:22;12.60;99.90
13229;DHT22;6680;53.220;10.402;2022-09-03T03:53:53;12.60;99.90
13229;DHT22;6680;53.220;10.402;2022-09-03T03:56:19;12.60;99.90
13229;DHT22;6680;53.220;10.402;2022-09-03T03:58:47;12.60;99.90
13229;DHT22;6680;53.220;10.402;2022-09-03T04:01:16;12.50;99.90
13229;DHT22;6680;53.220;10.402;2022-09-03T04:03:44;12.50;99.90
13229;DHT22;6680;53.220;10.402;2022-09-03T04:06:12;12.40;99.90
13229;DHT22;6680;53.220;10.402;2022-09-03T04:08:41;12.40;99.90
13229;DHT22;6680;53.220;10.402;2022-09-03T04:11:09;12.30;99.90
13229;DHT22;6680;53.220;10.402;2022-09-03T04:13:38;12.40;99.90
13229;DHT22;6680;53.220;10.402;2022-09-03T04:16:07;12.40;99.90
13229;DHT22;6680;53.220;10.402;2022-09-03T04:18:35;12.40;99.90
13229;DHT22;6680;53.220;10.402;2022-09-03T04:21:04;12.40;99.90
13229;DHT22;6680;53.220;10.402;2022-09-03T04:23:31;12.40;99.90
13229;DHT22;6680;53.220;10.402;2022-09-03T04:25:58;12.40;99.90
13229;DHT22;6680;53.220;10.402;2022-09-03T04:28:25;12.40;99.90
13229;DHT22;6680;53.220;10.402;2022-09-03T04:30:53;12.30;99.90
13229;DHT22;6680;53.220;10.402;2022-09-03T04:33:23;12.30;99.90
13229;DHT22;6680;53.220;10.402;2022-09-03T04:35:50;12.40;99.90
13229;DHT22;6680;53.220;10.402;2022-09-03T04:38:17;12.30;99.90
13229;DHT22;6680;53.220;10.402;2022-09-03T04:40:50;12.30;99.90
13229;DHT22;6680;53.220;10.402;2022-09-03T04:43:17;12.30;99.90
13229;DHT22;6680;53.220;10.402;2022-09-03T04:45:44;12.30;99.90
13229;DHT22;6680;53.220;10.402;2022-09-03T04:48:11;12.20;99.90
13229;DHT22;6680;53.220;10.402;2022-09-03T04:50:39;12.30;99.90
13229;DHT22;6680;53.220;10.402;2022-09-03T04:53:06;12.20;99.90
13229;DHT22;6680;53.220;10.402;2022-09-03T04:55:33;12.20;99.90
13229;DHT22;6680;53.220;10.402;2022-09-03T04:58:00;12.20;99.90
13229;DHT22;6680;53.220;10.402;2022-09-03T05:00:27;12.20;99.90
13229;DHT22;6680;53.220;10.402;2022-09-03T05:02:53;12.20;99.90
13229;DHT22;6680;53.220;10.402;2022-09-03T05:05:20;12.20;99.90
13229;DHT22;6680;53.220;10.402;2022-09-03T05:07:48;12.10;99.90
13229;DHT22;6680;53.220;10.402;2022-09-03T05:10:15;12.20;99.90
13229;DHT22;6680;53.220;10.402;2022-09-03T05:12:45;12.10;99.90
13229;DHT22;6680;53.220;10.402;2022-09-03T05:15:12;12.20;99.90
13229;DHT22;6680;53.220;10.402;2022-09-03T05:17:39;12.20;99.90
13229;DHT22;6680;53.220;10.402;2022-09-03T05:20:06;12.20;99.90
13229;DHT22;6680;53.220;10.402;2022-09-03T05:22:33;12.30;99.90
13229;DHT22;6680;53.220;10.402;2022-09-03T05:25:01;12.30;99.90
13229;DHT22;6680;53.220;10.402;2022-09-03T05:27:30;12.30;99.90
13229;DHT22;6680;53.220;10.402;2022-09-03T05:29:57;12.40;99.90
13229;DHT22;6680;53.220;10.402;2022-09-03T05:32:23;12.40;99.90
13229;DHT22;6680;53.220;10.402;2022-09-03T05:34:52;12.50;99.90
13229;DHT22;6680;53.220;10.402;2022-09-03T05:37:19;12.50;99.90
13229;DHT22;6680;53.220;10.402;2022-09-03T05:39:45;12.60;99.90
13229;DHT22;6680;53.220;10.402;2022-09-03T05:42:13;12.80;99.90
13229;DHT22;6680;53.220;10.402;2022-09-03T05:44:40;13.70;99.90
13229;DHT22;6680;53.220;10.402;2022-09-03T05:47:08;13.50;99.90
13229;DHT22;6680;53.220;10.402;2022-09-03T05:49:34;13.90;99.90
13229;DHT22;6680;53.220;10.402;2022-09-03T05:52:01;14.30;99.90
13229;DHT22;6680;53.220;10.402;2022-09-03T05:54:28;14.70;99.90
13229;DHT22;6680;53.220;10.402;2022-09-03T05:56:55;14.90;99.90
13229;DHT22;6680;53.220;10.402;2022-09-03T05:59:23;15.20;99.90
13229;DHT22;6680;53.220;10.402;2022-09-03T06:01:49;15.20;99.90
13229;DHT22;6680;53.220;10.402;2022-09-03T06:04:16;15.00;99.90
13229;DHT22;6680;53.220;10.402;2022-09-03T06:06:44;14.80;99.90
13229;DHT22;6680;53.220;10.402;2022-09-03T06:09:13;14.60;99.90
13229;DHT22;6680;53.220;10.402;2022-09-03T06:11:41;14.30;99.90
13229;DHT22;6680;53.220;10.402;2022-09-03T06:14:10;14.20;99.90
13229;DHT22;6680;53.220;10.402;2022-09-03T06:16:39;14.20;99.90
13229;DHT22;6680;53.220;10.402;2022-09-03T06:19:07;14.10;99.90
13229;DHT22;6680;53.220;10.402;2022-09-03T06:21:35;14.10;99.90
13229;DHT22;6680;53.220;10.402;2022-09-03T06:24:08;14.10;99.90
13229;DHT22;6680;53.220;10.402;2022-09-03T06:26:35;14.20;99.90
13229;DHT22;6680;53.220;10.402;2022-09-03T06:29:01;14.30;99.90
13229;DHT22;6680;53.220;10.402;2022-09-03T06:31:28;14.30;99.90
13229;DHT22;6680;53.220;10.402;2022-09-03T06:33:57;14.40;99.90
13229;DHT22;6680;53.220;10.402;2022-09-03T06:36:24;14.30;99.90
13229;DHT22;6680;53.220;10.402;2022-09-03T06:38:52;14.40;99.90
13229;DHT22;6680;53.220;10.402;2022-09-03T06:41:21;14.50;99.90
13229;DHT22;6680;53.220;10.402;2022-09-03T06:43:51;14.90;99.90
13229;DHT22;6680;53.220;10.402;2022-09-03T06:46:20;14.60;99.90
13229;DHT22;6680;53.220;10.402;2022-09-03T06:48:48;14.60;99.90
13229;DHT22;6680;53.220;10.402;2022-09-03T06:51:18;14.70;99.90
13229;DHT22;6680;53.220;10.402;2022-09-03T06:53:47;14.70;99.90
13229;DHT22;6680;53.220;10.402;2022-09-03T06:56:15;14.80;99.90
13229;DHT22;6680;53.220;10.402;2022-09-03T06:58:44;14.90;99.90
13229;DHT22;6680;53.220;10.402;2022-09-03T07:01:13;15.00;99.90
13229;DHT22;6680;53.220;10.402;2022-09-03T07:03:42;15.10;99.90
13229;DHT22;6680;53.220;10.402;2022-09-03T07:06:10;15.10;99.90
13229;DHT22;6680;53.220;10.402;2022-09-03T07:08:39;15.20;99.90
13229;DHT22;6680;53.220;10.402;2022-09-03T07:11:08;15.30;99.90
13229;DHT22;6680;53.220;10.402;2022-09-03T07:13:35;15.30;99.90
13229;DHT22;6680;53.220;10.402;2022-09-03T07:16:05;15.40;99.90
13229;DHT22;6680;53.220;10.402;2022-09-03T07:18:33;15.50;99.90
13229;DHT22;6680;53.220;10.402;2022-09-03T07:21:01;15.60;99.90
13229;DHT22;6680;53.220;10.402;2022-09-03T07:23:28;15.60;99.90
13229;DHT22;6680;53.220;10.402;2022-09-03T07:25:58;15.70;99.90
13229;DHT22;6680;53.220;10.402;2022-09-03T07:28:26;15.80;99.90
13229;DHT22;6680;53.220;10.402;2022-09-03T07:30:59;15.90;99.90
13229;DHT22;6680;53.220;10.402;2022-09-03T07:33:27;16.00;99.90
13229;DHT22;6680;53.220;10.402;2022-09-03T07:35:54;16.00;99.90
13229;DHT22;6680;53.220;10.402;2022-09-03T07:38:21;16.20;99.90
13229;DHT22;6680;53.220;10.402;2022-09-03T07:40:48;16.20;99.90
13229;DHT22;6680;53.220;10.402;2022-09-03T07:43:18;16.30;99.90
13229;DHT22;6680;53.220;10.402;2022-09-03T07:45:49;16.40;99.90
13229;DHT22;6680;53.220;10.402;2022-09-03T07:48:16;16.50;99.90
13229;DHT22;6680;53.220;10.402;2022-09-03T07:53:12;16.70;99.90
13229;DHT22;6680;53.220;10.402;2022-09-03T07:55:39;16.70;99.90
13229;DHT22;6680;53.220;10.402;2022-09-03T07:58:05;16.80;99.90
13229;DHT22;6680;53.220;10.402;2022-09-03T08:00:33;16.90;99.90
13229;DHT22;6680;53.220;10.402;2022-09-03T08:03:00;17.00;99.90
13229;DHT22;6680;53.220;10.402;2022-09-03T08:05:31;17.00;99.90
13229;DHT22;6680;53.220;10.402;2022-09-03T08:07:58;17.10;99.90
13229;DHT22;6680;53.220;10.402;2022-09-03T08:10:25;17.20;99.90
13229;DHT22;6680;53.220;10.402;2022-09-03T08:12:54;17.30;99.90
13229;DHT22;6680;53.220;10.402;2022-09-03T08:15:21;17.40;99.90
13229;DHT22;6680;53.220;10.402;2022-09-03T08:17:49;17.50;99.90
13229;DHT22;6680;53.220;10.402;2022-09-03T08:20:16;17.60;99.90
13229;DHT22;6680;53.220;10.402;2022-09-03T08:22:43;17.70;99.90
13229;DHT22;6680;53.220;10.402;2022-09-03T08:25:10;17.70;99.90
13229;DHT22;6680;53.220;10.402;2022-09-03T08:27:36;17.80;99.90
13229;DHT22;6680;53.220;10.402;2022-09-03T08:30:03;17.90;99.90
13229;DHT22;6680;53.220;10.402;2022-09-03T08:32:34;17.90;99.90
13229;DHT22;6680;53.220;10.402;2022-09-03T08:35:02;18.00;99.90
13229;DHT22;6680;53.220;10.402;2022-09-03T08:37:29;18.10;99.90
13229;DHT22;6680;53.220;10.402;2022-09-03T08:39:57;18.10;99.90
13229;DHT22;6680;53.220;10.402;2022-09-03T08:42:43;18.20;99.90
13229;DHT22;6680;53.220;10.402;2022-09-03T08:45:16;18.30;99.90
13229;DHT22;6680;53.220;10.402;2022-09-03T08:47:47;18.40;99.90
13229;DHT22;6680;53.220;10.402;2022-09-03T08:50:22;18.50;99.90
13229;DHT22;6680;53.220;10.402;2022-09-03T08:52:53;18.60;99.90
13229;DHT22;6680;53.220;10.402;2022-09-03T08:55:26;18.70;99.90
13229;DHT22;6680;53.220;10.402;2022-09-03T08:57:58;18.80;99.90
13229;DHT22;6680;53.220;10.402;2022-09-03T09:00:38;18.90;99.90
13229;DHT22;6680;53.220;10.402;2022-09-03T09:03:23;18.90;99.90
13229;DHT22;6680;53.220;10.402;2022-09-03T09:06:02;19.00;99.90
13229;DHT22;6680;53.220;10.402;2022-09-03T09:08:36;19.00;99.90
13229;DHT22;6680;53.220;10.402;2022-09-03T09:11:11;19.00;99.90
13229;DHT22;6680;53.220;10.402;2022-09-03T09:13:45;19.20;99.90
13229;DHT22;6680;53.220;10.402;2022-09-03T09:16:20;19.20;99.90
13229;DHT22;6680;53.220;10.402;2022-09-03T09:19:00;19.30;99.90
13229;DHT22;6680;53.220;10.402;2022-09-03T09:21:36;19.40;99.90
13229;DHT22;6680;53.220;10.402;2022-09-03T09:24:17;19.40;99.90
13229;DHT22;6680;53.220;10.402;2022-09-03T09:26:46;19.50;99.90
13229;DHT22;6680;53.220;10.402;2022-09-03T09:29:14;19.50;99.90
13229;DHT22;6680;53.220;10.402;2022-09-03T09:31:41;19.50;99.90
13229;DHT22;6680;53.220;10.402;2022-09-03T09:34:09;19.60;99.90
13229;DHT22;6680;53.220;10.402;2022-09-03T09:36:45;19.60;99.90
13229;DHT22;6680;53.220;10.402;2022-09-03T09:39:13;19.70;99.90
13229;DHT22;6680;53.220;10.402;2022-09-03T09:41:41;19.80;99.90
13229;DHT22;6680;53.220;10.402;2022-09-03T09:44:18;19.80;99.90
13229;DHT22;6680;53.220;10.402;2022-09-03T09:46:45;20.00;99.90
13229;DHT22;6680;53.220;10.402;2022-09-03T09:49:28;20.10;99.90
13229;DHT22;6680;53.220;10.402;2022-09-03T09:52:02;20.20;99.90
13229;DHT22;6680;53.220;10.402;2022-09-03T09:54:29;20.20;99.90
13229;DHT22;6680;53.220;10.402;2022-09-03T09:57:00;20.30;99.90
13229;DHT22;6680;53.220;10.402;2022-09-03T09:59:28;20.30;99.90
13229;DHT22;6680;53.220;10.402;2022-09-03T10:02:07;20.30;99.90
13229;DHT22;6680;53.220;10.402;2022-09-03T10:04:35;20.40;99.90
13229;DHT22;6680;53.220;10.402;2022-09-03T10:07:14;20.30;99.90
13229;DHT22;6680;53.220;10.402;2022-09-03T10:09:45;20.30;99.90
13229;DHT22;6680;53.220;10.402;2022-09-03T10:12:15;20.30;99.90
13229;DHT22;6680;53.220;10.402;2022-09-03T10:14:50;20.30;99.90
13229;DHT22;6680;53.220;10.402;2022-09-03T10:17:26;20.40;99.90
13229;DHT22;6680;53.220;10.402;2022-09-03T10:19:59;20.40;99.90
13229;DHT22;6680;53.220;10.402;2022-09-03T10:22:51;20.40;99.90
13229;DHT22;6680;53.220;10.402;2022-09-03T10:25:20;20.60;99.90
13229;DHT22;6680;53.220;10.402;2022-09-03T10:27:49;20.60;99.90
13229;DHT22;6680;53.220;10.402;2022-09-03T10:30:18;20.60;99.90
13229;DHT22;6680;53.220;10.402;2022-09-03T10:32:58;20.70;99.90
13229;DHT22;6680;53.220;10.402;2022-09-03T10:35:30;20.80;99.90
13229;DHT22;6680;53.220;10.402;2022-09-03T10:38:07;20.90;99.90
13229;DHT22;6680;53.220;10.402;2022-09-03T10:40:38;20.90;99.90
13229;DHT22;6680;53.220;10.402;2022-09-03T10:43:19;21.00;99.90
13229;DHT22;6680;53.220;10.402;2022-09-03T10:45:56;21.10;99.90
13229;DHT22;6680;53.220;10.402;2022-09-03T10:48:52;21.30;99.90
13229;DHT22;6680;53.220;10.402;2022-09-03T10:51:25;21.40;99.90
13229;DHT22;6680;53.220;10.402;2022-09-03T10:54:19;21.40;99.90
13229;DHT22;6680;53.220;10.402;2022-09-03T10:56:53;21.60;99.90
13229;DHT22;6680;53.220;10.402;2022-09-03T10:59:34;21.60;99.20
13229;DHT22;6680;53.220;10.402;2022-09-03T11:02:18;21.70;98.30
13229;DHT22;6680;53.220;10.402;2022-09-03T11:04:52;22.00;98.50
13229;DHT22;6680;53.220;10.402;2022-09-03T11:07:25;21.90;98.30
13229;DHT22;6680;53.220;10.402;2022-09-03T11:09:58;22.20;98.20
13229;DHT22;6680;53.220;10.402;2022-09-03T11:12:31;22.50;97.60
13229;DHT22;6680;53.220;10.402;2022-09-03T11:15:03;22.70;97.80
13229;DHT22;6680;53.220;10.402;2022-09-03T11:17:37;22.90;96.90
13229;DHT22;6680;53.220;10.402;2022-09-03T11:20:14;22.90;96.70
13229;DHT22;6680;53.220;10.402;2022-09-03T11:22:42;22.90;97.00
13229;DHT22;6680;53.220;10.402;2022-09-03T11:25:13;22.90;96.50
13229;DHT22;6680;53.220;10.402;2022-09-03T11:27:52;22.90;96.90
13229;DHT22;6680;53.220;10.402;2022-09-03T11:30:27;23.00;96.40
13229;DHT22;6680;53.220;10.402;2022-09-03T11:32:57;23.20;95.70
13229;DHT22;6680;53.220;10.402;2022-09-03T11:35:38;23.20;95.50
13229;DHT22;6680;53.220;10.402;2022-09-03T11:38:19;23.10;95.80
13229;DHT22;6680;53.220;10.402;2022-09-03T11:41:02;23.00;96.10
13229;DHT22;6680;53.220;10.402;2022-09-03T11:43:30;22.90;95.90
13229;DHT22;6680;53.220;10.402;2022-09-03T11:46:05;22.90;96.10
13229;DHT22;6680;53.220;10.402;2022-09-03T11:48:38;23.00;95.80
13229;DHT22;6680;53.220;10.402;2022-09-03T11:51:18;22.90;96.00
13229;DHT22;6680;53.220;10.402;2022-09-03T11:53:53;22.70;95.40
13229;DHT22;6680;53.220;10.402;2022-09-03T11:56:22;22.60;96.10
13229;DHT22;6680;53.220;10.402;2022-09-03T11:59:00;22.60;96.10
13229;DHT22;6680;53.220;10.402;2022-09-03T12:01:28;22.60;96.10
13229;DHT22;6680;53.220;10.402;2022-09-03T12:03:58;22.70;96.20
13229;DHT22;6680;53.220;10.402;2022-09-03T12:12:38;23.10;94.90
13229;DHT22;6680;53.220;10.402;2022-09-03T12:15:16;23.20;95.70
13229;DHT22;6680;53.220;10.402;2022-09-03T12:17:51;23.20;95.60
13229;DHT22;6680;53.220;10.402;2022-09-03T12:20:44;23.30;95.80
13229;DHT22;6680;53.220;10.402;2022-09-03T12:23:11;23.30;95.00
13229;DHT22;6680;53.220;10.402;2022-09-03T12:25:42;23.20;94.70
13229;DHT22;6680;53.220;10.402;2022-09-03T12:28:20;23.00;94.70
13229;DHT22;6680;53.220;10.402;2022-09-03T12:30:48;22.70;94.70
13229;DHT22;6680;53.220;10.402;2022-09-03T12:33:18;22.40;94.80
13229;DHT22;6680;53.220;10.402;2022-09-03T12:35:55;22.30;95.90
13229;DHT22;6680;53.220;10.402;2022-09-03T12:38:22;22.20;95.60
13229;DHT22;6680;53.220;10.402;2022-09-03T12:40:50;22.40;95.50
13229;DHT22;6680;53.220;10.402;2022-09-03T12:43:18;22.40;95.20
13229;DHT22;6680;53.220;10.402;2022-09-03T12:45:46;22.30;95.10
13229;DHT22;6680;53.220;10.402;2022-09-03T12:48:13;22.20;95.10
13229;DHT22;6680;53.220;10.402;2022-09-03T12:53:10;22.00;95.10
13229;DHT22;6680;53.220;10.402;2022-09-03T12:55:42;21.90;95.70
13229;DHT22;6680;53.220;10.402;2022-09-03T12:58:12;21.90;95.60
13229;DHT22;6680;53.220;10.402;2022-09-03T13:00:46;21.90;95.80
13229;DHT22;6680;53.220;10.402;2022-09-03T13:03:18;21.80;95.80
13229;DHT22;6680;53.220;10.402;2022-09-03T13:05:48;21.90;95.90
13229;DHT22;6680;53.220;10.402;2022-09-03T13:08:19;22.00;95.80
13229;DHT22;6680;53.220;10.402;2022-09-03T13:10:50;22.10;95.50
13229;DHT22;6680;53.220;10.402;2022-09-03T13:13:21;22.20;95.00
13229;DHT22;6680;53.220;10.402;2022-09-03T13:16:11;22.30;95.70
13229;DHT22;6680;53.220;10.402;2022-09-03T13:18:46;22.50;95.10
13229;DHT22;6680;53.220;10.402;2022-09-03T13:21:18;22.50;95.40
13229;DHT22;6680;53.220;10.402;2022-09-03T13:23:59;22.60;95.10
13229;DHT22;6680;53.220;10.402;2022-09-03T13:26:33;22.70;94.60
13229;DHT22;6680;53.220;10.402;2022-09-03T13:29:23;22.70;94.40
13229;DHT22;6680;53.220;10.402;2022-09-03T13:31:59;22.70;94.90
13229;DHT22;6680;53.220;10.402;2022-09-03T13:34:31;22.70;94.70
13229;DHT22;6680;53.220;10.402;2022-09-03T13:37:10;22.70;94.80
13229;DHT22;6680;53.220;10.402;2022-09-03T13:39:42;22.80;94.00
13229;DHT22;6680;53.220;10.402;2022-09-03T13:42:16;22.70;94.40
13229;DHT22;6680;53.220;10.402;2022-09-03T13:44:51;22.50;94.50
13229;DHT22;6680;53.220;10.402;2022-09-03T13:47:27;22.40;94.40
13229;DHT22;6680;53.220;10.402;2022-09-03T13:50:02;22.30;94.60
13229;DHT22;6680;53.220;10.402;2022-09-03T13:52:47;22.10;94.60
13229;DHT22;6680;53.220;10.402;2022-09-03T13:55:21;22.10;94.90
13229;DHT22;6680;53.220;10.402;2022-09-03T13:57:53;22.10;95.50
13229;DHT22;6680;53.220;10.402;2022-09-03T14:00:23;22.10;94.70
13229;DHT22;6680;53.220;10.402;2022-09-03T14:03:02;22.30;95.10
13229;DHT22;6680;53.220;10.402;2022-09-03T14:05:40;22.30;95.40
13229;DHT22;6680;53.220;10.402;2022-09-03T14:08:19;22.60;94.70
13229;DHT22;6680;53.220;10.402;2022-09-03T14:10:54;22.70;94.40
13229;DHT22;6680;53.220;10.402;2022-09-03T14:13:30;22.70;95.20
13229;DHT22;6680;53.220;10.402;2022-09-03T14:16:06;22.60;94.80
13229;DHT22;6680;53.220;10.402;2022-09-03T14:18:43;22.60;94.50
13229;DHT22;6680;53.220;10.402;2022-09-03T14:21:15;22.60;94.30
13229;DHT22;6680;53.220;10.402;2022-09-03T14:23:47;22.60;94.00
13229;DHT22;6680;53.220;10.402;2022-09-03T14:26:18;22.50;93.70
13229;DHT22;6680;53.220;10.402;2022-09-03T14:28:48;22.50;93.80
13229;DHT22;6680;53.220;10.402;2022-09-03T14:31:31;22.50;94.10
13229;DHT22;6680;53.220;10.402;2022-09-03T14:34:06;22.50;94.40
13229;DHT22;6680;53.220;10.402;2022-09-03T14:36:37;22.50;94.00
13229;DHT22;6680;53.220;10.402;2022-09-03T14:39:24;22.60;94.40
13229;DHT22;6680;53.220;10.402;2022-09-03T14:42:17;22.60;94.30
13229;DHT22;6680;53.220;10.402;2022-09-03T14:45:07;22.80;94.60
13229;DHT22;6680;53.220;10.402;2022-09-03T14:47:51;22.70;94.10
13229;DHT22;6680;53.220;10.402;2022-09-03T14:50:33;22.70;94.00
13229;DHT22;6680;53.220;10.402;2022-09-03T14:53:17;22.80;94.60
13229;DHT22;6680;53.220;10.402;2022-09-03T14:56:04;22.90;94.90
13229;DHT22;6680;53.220;10.402;2022-09-03T14:58:59;23.00;93.60
13229;DHT22;6680;53.220;10.402;2022-09-03T15:01:32;23.00;93.40
13229;DHT22;6680;53.220;10.402;2022-09-03T15:04:23;23.00;93.70
13229;DHT22;6680;53.220;10.402;2022-09-03T15:10:03;22.80;93.80
13229;DHT22;6680;53.220;10.402;2022-09-03T15:12:34;22.70;94.00
13229;DHT22;6680;53.220;10.402;2022-09-03T15:15:07;22.60;93.90
13229;DHT22;6680;53.220;10.402;2022-09-03T15:17:49;22.50;93.60
13229;DHT22;6680;53.220;10.402;2022-09-03T15:20:23;22.50;94.20
13229;DHT22;6680;53.220;10.402;2022-09-03T15:23:15;22.40;94.00
13229;DHT22;6680;53.220;10.402;2022-09-03T15:26:09;22.40;94.40
13229;DHT22;6680;53.220;10.402;2022-09-03T15:28:52;22.30;94.30
13229;DHT22;6680;53.220;10.402;2022-09-03T15:31:27;22.20;94.30
13229;DHT22;6680;53.220;10.402;2022-09-03T15:34:11;22.10;94.50
13229;DHT22;6680;53.220;10.402;2022-09-03T15:36:40;22.10;94.70
13229;DHT22;6680;53.220;10.402;2022-09-03T15:39:12;22.00;94.40
13229;DHT22;6680;53.220;10.402;2022-09-03T15:41:45;22.00;94.70
13229;DHT22;6680;53.220;10.402;2022-09-03T15:44:17;22.00;94.60
13229;DHT22;6680;53.220;10.402;2022-09-03T15:46:53;21.90;94.70
13229;DHT22;6680;53.220;10.402;2022-09-03T15:49:42;21.80;94.70
13229;DHT22;6680;53.220;10.402;2022-09-03T15:52:25;21.90;94.70
13229;DHT22;6680;53.220;10.402;2022-09-03T15:55:01;21.90;94.90
13229;DHT22;6680;53.220;10.402;2022-09-03T15:57:36;21.90;95.10
13229;DHT22;6680;53.220;10.402;2022-09-03T16:00:07;21.80;95.80
13229;DHT22;6680;53.220;10.402;2022-09-03T16:02:39;21.70;95.30
13229;DHT22;6680;53.220;10.402;2022-09-03T16:05:12;21.70;95.00
13229;DHT22;6680;53.220;10.402;2022-09-03T16:07:53;21.70;95.20
13229;DHT22;6680;53.220;10.402;2022-09-03T16:10:35;21.70;95.20
13229;DHT22;6680;53.220;10.402;2022-09-03T16:13:13;21.70;94.90
13229;DHT22;6680;53.220;10.402;2022-09-03T16:15:47;21.70;95.00
13229;DHT22;6680;53.220;10.402;2022-09-03T16:18:22;21.70;95.30